Wetterdaten: Woche 18.05.15 - 24.05.15 (KW21)
Datum Zeit Temp. Aussen +5cm Feuchte Auss BlattFeu 1 Luftdruck Regen Sonnenschein Regendauer Solar Windben
18.05.2015 00:00 9,2 C 8,3 C 78 % 0 lf 1019,6 hPa 0,0 l/m 0,00 h 0,00 h 0 W/m 1,3 km/h (1 Bft)
18.05.2015 01:00 8,7 C 8,8 C 83 % 0 lf 1019,0 hPa 0,0 l/m 0,00 h 0,00 h 0 W/m 1,7 km/h (1 Bft)
18.05.2015 02:00 8,8 C 8,6 C 86 % 0 lf 1018,0 hPa 0,0 l/m 0,00 h 0,00 h 0 W/m 1,5 km/h (1 Bft)
18.05.2015 03:00 8,2 C 7,6 C 86 % 1 lf 1017,0 hPa 0,0 l/m 0,00 h 0,00 h 0 W/m 1,1 km/h (0 Bft)
18.05.2015 04:00 7,1 C 6,8 C 87 % 3 lf 1016,0 hPa 0,0 l/m 0,00 h 0,00 h 0 W/m 0,9 km/h (0 Bft)
18.05.2015 05:00 6,3 C 6,7 C 88 % 12 lf 1015,2 hPa 0,0 l/m 0,00 h 0,00 h 7 W/m 2,5 km/h (1 Bft)
18.05.2015 06:00 6,7 C 7,3 C 92 % 8 lf 1014,3 hPa 0,0 l/m 0,50 h 0,00 h 63 W/m 6,5 km/h (2 Bft)
18.05.2015 07:00 10,2 C 9,3 C 84 % 0 lf 1013,7 hPa 0,0 l/m 0,57 h 0,00 h 126 W/m 11,2 km/h (2 Bft)
18.05.2015 08:00 11,4 C 10,2 C 79 % 0 lf 1013,1 hPa 0,0 l/m 0,67 h 0,00 h 271 W/m 18,0 km/h (3 Bft)
18.05.2015 09:00 13,6 C 11,8 C 71 % 0 lf 1012,4 hPa 0,0 l/m 1,00 h 0,00 h 460 W/m 17,2 km/h (3 Bft)
18.05.2015 10:00 15,7 C 14,8 C 66 % 0 lf 1011,4 hPa 0,0 l/m 0,97 h 0,00 h 567 W/m 21,2 km/h (4 Bft)
18.05.2015 11:00 16,3 C 15,9 C 65 % 0 lf 1010,5 hPa 0,0 l/m 0,80 h 0,00 h 470 W/m 23,3 km/h (4 Bft)
18.05.2015 12:00 17,2 C 17,0 C 63 % 0 lf 1009,5 hPa 0,0 l/m 0,73 h 0,00 h 491 W/m 29,7 km/h (5 Bft)
18.05.2015 13:00 19,3 C 19,2 C 58 % 0 lf 1008,0 hPa 0,0 l/m 0,87 h 0,00 h 746 W/m 29,6 km/h (5 Bft)
18.05.2015 14:00 21,1 C 19,2 C 53 % 0 lf 1006,8 hPa 0,0 l/m 1,00 h 0,00 h 813 W/m 31,9 km/h (5 Bft)
18.05.2015 15:00 21,8 C 19,5 C 49 % 0 lf 1005,8 hPa 0,0 l/m 0,87 h 0,00 h 708 W/m 35,2 km/h (5 Bft)
18.05.2015 16:00 21,5 C 19,7 C 48 % 0 lf 1005,2 hPa 0,0 l/m 1,00 h 0,00 h 527 W/m 33,8 km/h (5 Bft)
18.05.2015 17:00 20,9 C 18,6 C 48 % 0 lf 1004,5 hPa 0,0 l/m 0,27 h 0,00 h 280 W/m 31,0 km/h (5 Bft)
18.05.2015 18:00 19,7 C 17,3 C 52 % 0 lf 1003,9 hPa 0,0 l/m 0,00 h 0,00 h 120 W/m 25,6 km/h (4 Bft)
18.05.2015 19:00 18,8 C 16,2 C 56 % 0 lf 1003,6 hPa 0,0 l/m 0,00 h 0,00 h 37 W/m 23,2 km/h (4 Bft)
18.05.2015 20:00 17,7 C 15,2 C 62 % 0 lf 1003,7 hPa 0,0 l/m 0,00 h 0,00 h 13 W/m 25,9 km/h (4 Bft)
18.05.2015 21:00 14,7 C 12,6 C 76 % 10 lf 1004,6 hPa 0,0 l/m 0,00 h 0,63 h 1 W/m 27,1 km/h (4 Bft)
18.05.2015 22:00 12,5 C 11,1 C 80 % 5 lf 1004,7 hPa 0,0 l/m 0,00 h 0,53 h 0 W/m 21,3 km/h (4 Bft)
18.05.2015 23:00 11,6 C 10,2 C 84 % 13 lf 1004,9 hPa 0,2 l/m 0,00 h 0,57 h 0 W/m 20,3 km/h (4 Bft)
19.05.2015 00:00 11,0 C 9,9 C 88 % 15 lf 1005,0 hPa 0,2 l/m 0,00 h 0,63 h 0 W/m 21,0 km/h (4 Bft)
19.05.2015 01:00 10,1 C 9,2 C 88 % 15 lf 1004,7 hPa 0,4 l/m 0,00 h 0,83 h 0 W/m 18,3 km/h (3 Bft)
19.05.2015 02:00 9,5 C 8,9 C 89 % 15 lf 1004,4 hPa 0,0 l/m 0,00 h 0,00 h 0 W/m 17,6 km/h (3 Bft)
19.05.2015 03:00 9,2 C 8,4 C 90 % 6 lf 1004,5 hPa 0,0 l/m 0,00 h 0,00 h 0 W/m 23,8 km/h (4 Bft)
19.05.2015 04:00 8,8 C 8,0 C 88 % 1 lf 1004,5 hPa 0,0 l/m 0,00 h 0,00 h 0 W/m 20,3 km/h (4 Bft)
19.05.2015 05:00 8,5 C 7,9 C 89 % 1 lf 1004,7 hPa 0,0 l/m 0,00 h 0,00 h 8 W/m 22,2 km/h (4 Bft)
19.05.2015 06:00 9,0 C 8,3 C 87 % 0 lf 1005,2 hPa 0,0 l/m 0,00 h 0,00 h 30 W/m 21,6 km/h (4 Bft)
19.05.2015 07:00 9,1 C 8,4 C 86 % 0 lf 1005,6 hPa 0,0 l/m 0,67 h 0,00 h 155 W/m 25,2 km/h (4 Bft)
19.05.2015 08:00 9,9 C 9,0 C 83 % 0 lf 1005,9 hPa 0,0 l/m 0,57 h 0,00 h 267 W/m 28,6 km/h (4 Bft)
19.05.2015 09:00 11,4 C 10,9 C 76 % 0 lf 1006,0 hPa 0,0 l/m 0,67 h 0,00 h 429 W/m 30,6 km/h (5 Bft)
19.05.2015 10:00 12,0 C 11,2 C 72 % 0 lf 1006,3 hPa 0,0 l/m 0,27 h 0,03 h 298 W/m 33,0 km/h (5 Bft)
19.05.2015 11:00 12,5 C 12,0 C 69 % 0 lf 1006,5 hPa 0,0 l/m 0,27 h 0,00 h 375 W/m 36,3 km/h (5 Bft)
19.05.2015 12:00 12,8 C 12,0 C 68 % 0 lf 1006,6 hPa 0,2 l/m 0,17 h 0,13 h 274 W/m 33,3 km/h (5 Bft)
19.05.2015 13:00 14,2 C 14,1 C 63 % 2 lf 1006,6 hPa 0,0 l/m 0,63 h 0,10 h 597 W/m 36,3 km/h (5 Bft)
19.05.2015 14:00 15,2 C 14,4 C 60 % 0 lf 1006,7 hPa 0,0 l/m 0,67 h 0,20 h 662 W/m 30,7 km/h (5 Bft)
19.05.2015 15:00 15,7 C 14,3 C 59 % 0 lf 1007,0 hPa 0,0 l/m 0,33 h 0,10 h 418 W/m 31,7 km/h (5 Bft)
19.05.2015 16:00 15,0 C 14,7 C 65 % 0 lf 1007,3 hPa 0,0 l/m 0,57 h 0,00 h 480 W/m 24,8 km/h (4 Bft)
19.05.2015 17:00 14,3 C 12,8 C 63 % 2 lf 1007,4 hPa 0,0 l/m 0,77 h 0,13 h 440 W/m 29,4 km/h (5 Bft)
19.05.2015 18:00 14,2 C 12,5 C 60 % 0 lf 1007,4 hPa 0,0 l/m 0,77 h 0,00 h 316 W/m 30,2 km/h (5 Bft)
19.05.2015 19:00 14,0 C 12,4 C 59 % 0 lf 1007,3 hPa 0,0 l/m 0,80 h 0,00 h 231 W/m 31,8 km/h (5 Bft)
19.05.2015 20:00 12,6 C 10,9 C 65 % 0 lf 1007,7 hPa 0,0 l/m 0,00 h 0,00 h 38 W/m 22,7 km/h (4 Bft)
19.05.2015 21:00 11,6 C 10,1 C 70 % 0 lf 1008,3 hPa 0,0 l/m 0,00 h 0,00 h 9 W/m 16,2 km/h (3 Bft)
19.05.2015 22:00 11,1 C 9,9 C 73 % 0 lf 1008,8 hPa 0,0 l/m 0,00 h 0,00 h 0 W/m 16,5 km/h (3 Bft)
19.05.2015 23:00 10,5 C 9,2 C 75 % 0 lf 1009,2 hPa 0,0 l/m 0,00 h 0,00 h 0 W/m 15,6 km/h (3 Bft)
20.05.2015 00:00 9,6 C 8,6 C 78 % 0 lf 1009,3 hPa 0,0 l/m 0,00 h 0,00 h 0 W/m 15,5 km/h (3 Bft)
20.05.2015 01:00 9,0 C 8,0 C 81 % 0 lf 1009,4 hPa 0,0 l/m 0,00 h 0,00 h 0 W/m 13,0 km/h (3 Bft)
20.05.2015 02:00 8,2 C 7,5 C 83 % 0 lf 1009,7 hPa 0,0 l/m 0,00 h 0,00 h 0 W/m 14,4 km/h (3 Bft)
20.05.2015 03:00 7,7 C 7,2 C 84 % 0 lf 1009,9 hPa 0,0 l/m 0,00 h 0,00 h 0 W/m 10,2 km/h (2 Bft)
20.05.2015 04:00 7,1 C 6,7 C 87 % 1 lf 1010,3 hPa 0,0 l/m 0,00 h 0,00 h 0 W/m 11,0 km/h (2 Bft)
20.05.2015 05:00 7,2 C 7,0 C 88 % 0 lf 1010,4 hPa 0,0 l/m 0,00 h 0,00 h 9 W/m 15,5 km/h (3 Bft)
20.05.2015 06:00 7,3 C 6,9 C 88 % 0 lf 1010,6 hPa 0,0 l/m 0,63 h 0,00 h 63 W/m 16,4 km/h (3 Bft)
20.05.2015 07:00 8,1 C 7,4 C 87 % 0 lf 1010,9 hPa 0,0 l/m 1,00 h 0,00 h 203 W/m 21,3 km/h (4 Bft)
20.05.2015 08:00 9,3 C 8,1 C 83 % 0 lf 1011,6 hPa 0,0 l/m 1,00 h 0,00 h 359 W/m 20,9 km/h (4 Bft)
20.05.2015 09:00 11,5 C 10,4 C 74 % 0 lf 1012,2 hPa 0,0 l/m 0,90 h 0,00 h 504 W/m 19,0 km/h (3 Bft)
20.05.2015 10:00 13,5 C 12,7 C 66 % 0 lf 1012,5 hPa 0,0 l/m 0,83 h 0,00 h 664 W/m 21,4 km/h (4 Bft)
20.05.2015 11:00 13,3 C 12,3 C 66 % 0 lf 1013,0 hPa 0,0 l/m 0,37 h 0,00 h 372 W/m 15,7 km/h (3 Bft)
20.05.2015 12:00 15,2 C 14,5 C 58 % 0 lf 1013,3 hPa 0,0 l/m 0,47 h 0,00 h 484 W/m 21,4 km/h (4 Bft)
20.05.2015 13:00 15,9 C 17,1 C 57 % 0 lf 1013,7 hPa 0,0 l/m 0,53 h 0,03 h 669 W/m 17,3 km/h (3 Bft)
20.05.2015 14:00 15,5 C 14,9 C 59 % 1 lf 1014,3 hPa 0,0 l/m 0,27 h 0,20 h 440 W/m 24,7 km/h (4 Bft)
20.05.2015 15:00 15,2 C 15,4 C 54 % 0 lf 1014,6 hPa 0,0 l/m 0,60 h 0,00 h 549 W/m 24,0 km/h (4 Bft)
20.05.2015 16:00 16,0 C 15,7 C 55 % 0 lf 1015,2 hPa 0,0 l/m 0,47 h 0,00 h 424 W/m 19,4 km/h (3 Bft)
20.05.2015 17:00 14,8 C 14,1 C 59 % 0 lf 1015,6 hPa 0,0 l/m 0,73 h 0,00 h 330 W/m 13,7 km/h (3 Bft)
20.05.2015 18:00 15,0 C 13,9 C 58 % 0 lf 1016,0 hPa 0,0 l/m 0,53 h 0,00 h 313 W/m 15,1 km/h (3 Bft)
20.05.2015 19:00 14,4 C 12,9 C 57 % 0 lf 1016,4 hPa 0,0 l/m 0,27 h 0,00 h 105 W/m 12,8 km/h (3 Bft)
20.05.2015 20:00 13,9 C 12,0 C 59 % 0 lf 1017,3 hPa 0,0 l/m 0,63 h 0,00 h 71 W/m 16,2 km/h (3 Bft)
20.05.2015 21:00 12,4 C 10,0 C 63 % 0 lf 1018,3 hPa 0,0 l/m 0,03 h 0,00 h 10 W/m 8,0 km/h (2 Bft)
20.05.2015 22:00 10,5 C 8,4 C 67 % 0 lf 1019,1 hPa 0,0 l/m 0,00 h 0,00 h 0 W/m 3,9 km/h (1 Bft)
20.05.2015 23:00 8,8 C 7,4 C 73 % 0 lf 1019,7 hPa 0,0 l/m 0,00 h 0,03 h 0 W/m 3,5 km/h (1 Bft)
21.05.2015 00:00 7,5 C 6,8 C 78 % 0 lf 1020,2 hPa 0,0 l/m 0,00 h 0,00 h 0 W/m 4,1 km/h (1 Bft)
21.05.2015 01:00 6,6 C 6,4 C 82 % 1 lf 1020,5 hPa 0,0 l/m 0,00 h 0,00 h 0 W/m 4,9 km/h (1 Bft)
21.05.2015 02:00 6,1 C 5,9 C 84 % 2 lf 1020,8 hPa 0,0 l/m 0,00 h 0,00 h 0 W/m 3,1 km/h (1 Bft)
21.05.2015 03:00 5,5 C 5,6 C 87 % 7 lf 1021,3 hPa 0,0 l/m 0,00 h 0,00 h 0 W/m 5,6 km/h (1 Bft)
21.05.2015 04:00 5,3 C 5,6 C 90 % 13 lf 1021,7 hPa 0,0 l/m 0,00 h 0,00 h 0 W/m 4,9 km/h (1 Bft)
21.05.2015 05:00 5,1 C 5,2 C 91 % 15 lf 1022,0 hPa 0,0 l/m 0,00 h 0,00 h 9 W/m 4,5 km/h (1 Bft)
21.05.2015 06:00 4,9 C 5,6 C 92 % 15 lf 1022,7 hPa 0,0 l/m 0,63 h 0,00 h 61 W/m 6,2 km/h (2 Bft)
21.05.2015 07:00 5,9 C 6,5 C 94 % 13 lf 1023,3 hPa 0,0 l/m 1,00 h 0,00 h 191 W/m 8,6 km/h (2 Bft)
21.05.2015 08:00 8,0 C 7,8 C 95 % 0 lf 1023,6 hPa 0,0 l/m 1,00 h 0,00 h 356 W/m 10,1 km/h (2 Bft)
21.05.2015 09:00 11,9 C 11,2 C 84 % 0 lf 1024,1 hPa 0,0 l/m 1,00 h 0,00 h 509 W/m 8,8 km/h (2 Bft)
21.05.2015 10:00 15,2 C 13,2 C 65 % 0 lf 1024,2 hPa 0,0 l/m 0,98 h 0,00 h 646 W/m 10,4 km/h (2 Bft)
21.05.2015 11:00 16,3 C 14,7 C 60 % 0 lf 1024,4 hPa 0,0 l/m 0,73 h 0,00 h 673 W/m 16,4 km/h (3 Bft)
21.05.2015 12:00 17,8 C 16,7 C 55 % 0 lf 1024,6 hPa 0,0 l/m 0,60 h 0,00 h 539 W/m 15,7 km/h (3 Bft)
21.05.2015 13:00 17,8 C 17,1 C 54 % 0 lf 1024,6 hPa 0,0 l/m 0,47 h 0,00 h 535 W/m 13,1 km/h (3 Bft)
21.05.2015 14:00 19,3 C 18,3 C 50 % 0 lf 1024,3 hPa 0,0 l/m 0,43 h 0,00 h 555 W/m 10,8 km/h (2 Bft)
21.05.2015 15:00 17,5 C 15,9 C 54 % 0 lf 1024,5 hPa 0,0 l/m 0,07 h 0,07 h 176 W/m 12,5 km/h (3 Bft)
21.05.2015 16:00 17,5 C 16,2 C 54 % 0 lf 1024,5 hPa 0,0 l/m 0,10 h 0,00 h 211 W/m 10,8 km/h (2 Bft)
21.05.2015 17:00 16,6 C 14,5 C 55 % 0 lf 1024,5 hPa 0,0 l/m 0,00 h 0,00 h 85 W/m 6,3 km/h (2 Bft)
21.05.2015 18:00 16,5 C 14,4 C 57 % 0 lf 1024,6 hPa 0,0 l/m 0,00 h 0,00 h 69 W/m 3,0 km/h (1 Bft)
21.05.2015 19:00 16,1 C 13,6 C 61 % 0 lf 1024,7 hPa 0,0 l/m 0,00 h 0,03 h 29 W/m 3,5 km/h (1 Bft)
21.05.2015 20:00 15,6 C 12,9 C 63 % 0 lf 1024,9 hPa 0,0 l/m 0,00 h 0,00 h 17 W/m 2,4 km/h (1 Bft)
21.05.2015 21:00 15,0 C 12,5 C 65 % 0 lf 1025,7 hPa 0,0 l/m 0,00 h 0,00 h 6 W/m 7,3 km/h (2 Bft)
21.05.2015 22:00 14,0 C 11,2 C 65 % 0 lf 1026,4 hPa 0,0 l/m 0,00 h 0,00 h 0 W/m 6,4 km/h (2 Bft)
21.05.2015 23:00 12,5 C 9,9 C 69 % 0 lf 1026,6 hPa 0,0 l/m 0,00 h 0,00 h 0 W/m 3,7 km/h (1 Bft)
22.05.2015 00:00 11,2 C 9,4 C 72 % 0 lf 1026,7 hPa 0,0 l/m 0,00 h 0,00 h 0 W/m 3,1 km/h (1 Bft)
22.05.2015 01:00 10,5 C 9,4 C 78 % 0 lf 1026,7 hPa 0,0 l/m 0,00 h 0,00 h 0 W/m 2,9 km/h (1 Bft)
22.05.2015 02:00 10,3 C 9,4 C 80 % 0 lf 1026,7 hPa 0,0 l/m 0,00 h 0,00 h 0 W/m 4,3 km/h (1 Bft)
22.05.2015 03:00 10,1 C 9,1 C 81 % 0 lf 1026,6 hPa 0,0 l/m 0,00 h 0,00 h 0 W/m 5,0 km/h (1 Bft)
22.05.2015 04:00 9,8 C 8,9 C 82 % 0 lf 1026,4 hPa 0,0 l/m 0,00 h 0,00 h 0 W/m 2,9 km/h (1 Bft)
22.05.2015 05:00 9,5 C 8,9 C 85 % 0 lf 1026,1 hPa 0,0 l/m 0,00 h 0,00 h 8 W/m 1,4 km/h (1 Bft)
22.05.2015 06:00 9,5 C 9,4 C 87 % 0 lf 1026,1 hPa 0,0 l/m 0,20 h 0,00 h 54 W/m 2,2 km/h (1 Bft)
22.05.2015 07:00 10,3 C 10,3 C 88 % 0 lf 1026,3 hPa 0,0 l/m 0,90 h 0,00 h 154 W/m 4,1 km/h (1 Bft)
22.05.2015 08:00 12,0 C 11,3 C 83 % 0 lf 1026,4 hPa 0,0 l/m 1,00 h 0,00 h 318 W/m 6,9 km/h (2 Bft)
22.05.2015 09:00 14,9 C 13,3 C 69 % 0 lf 1026,4 hPa 0,0 l/m 0,63 h 0,00 h 327 W/m 6,6 km/h (2 Bft)
22.05.2015 10:00 17,5 C 15,3 C 59 % 0 lf 1026,1 hPa 0,0 l/m 1,00 h 0,00 h 549 W/m 8,8 km/h (2 Bft)
22.05.2015 11:00 19,9 C 16,9 C 52 % 0 lf 1025,8 hPa 0,0 l/m 1,00 h 0,00 h 738 W/m 10,6 km/h (2 Bft)
22.05.2015 12:00 20,7 C 19,2 C 51 % 0 lf 1025,2 hPa 0,0 l/m 0,67 h 0,00 h 643 W/m 13,1 km/h (3 Bft)
22.05.2015 13:00 21,3 C 20,7 C 50 % 0 lf 1024,6 hPa 0,0 l/m 0,77 h 0,00 h 694 W/m 12,1 km/h (2 Bft)
22.05.2015 14:00 22,4 C 22,5 C 47 % 0 lf 1024,0 hPa 0,0 l/m 0,93 h 0,00 h 840 W/m 11,9 km/h (2 Bft)
22.05.2015 15:00 23,1 C 22,0 C 45 % 0 lf 1023,5 hPa 0,0 l/m 0,97 h 0,00 h 774 W/m 12,8 km/h (3 Bft)
22.05.2015 16:00 22,3 C 19,8 C 45 % 0 lf 1022,9 hPa 0,0 l/m 0,63 h 0,00 h 517 W/m 9,6 km/h (2 Bft)
22.05.2015 17:00 22,5 C 19,5 C 44 % 0 lf 1022,4 hPa 0,0 l/m 0,57 h 0,00 h 390 W/m 9,9 km/h (2 Bft)
22.05.2015 18:00 21,1 C 18,5 C 47 % 0 lf 1022,0 hPa 0,0 l/m 0,38 h 0,00 h 246 W/m 10,0 km/h (2 Bft)
22.05.2015 19:00 20,1 C 17,2 C 50 % 0 lf 1021,8 hPa 0,0 l/m 0,00 h 0,00 h 70 W/m 8,6 km/h (2 Bft)
22.05.2015 20:00 19,5 C 16,6 C 52 % 0 lf 1021,8 hPa 0,0 l/m 0,00 h 0,00 h 34 W/m 6,4 km/h (2 Bft)
22.05.2015 21:00 18,5 C 14,7 C 57 % 0 lf 1021,8 hPa 0,0 l/m 0,00 h 0,00 h 10 W/m 4,6 km/h (1 Bft)
22.05.2015 22:00 16,6 C 13,4 C 64 % 0 lf 1022,2 hPa 0,0 l/m 0,00 h 0,00 h 0 W/m 7,4 km/h (2 Bft)
22.05.2015 23:00 15,3 C 12,8 C 71 % 0 lf 1022,4 hPa 0,0 l/m 0,00 h 0,00 h 0 W/m 6,2 km/h (2 Bft)
23.05.2015 00:00 13,8 C 11,8 C 75 % 0 lf 1022,5 hPa 0,0 l/m 0,00 h 0,00 h 0 W/m 1,9 km/h (1 Bft)
23.05.2015 01:00 12,5 C 11,5 C 79 % 0 lf 1022,2 hPa 0,0 l/m 0,00 h 0,00 h 0 W/m 2,5 km/h (1 Bft)
23.05.2015 02:00 11,9 C 11,1 C 81 % 0 lf 1021,6 hPa 0,0 l/m 0,00 h 0,00 h 0 W/m 2,4 km/h (1 Bft)
23.05.2015 03:00 11,6 C 10,4 C 82 % 0 lf 1021,2 hPa 0,0 l/m 0,00 h 0,00 h 0 W/m 2,3 km/h (1 Bft)
23.05.2015 04:00 10,9 C 10,4 C 83 % 0 lf 1021,1 hPa 0,0 l/m 0,00 h 0,00 h 0 W/m 3,1 km/h (1 Bft)
23.05.2015 05:00 11,0 C 10,9 C 87 % 0 lf 1020,9 hPa 0,0 l/m 0,00 h 0,00 h 6 W/m 3,6 km/h (1 Bft)
23.05.2015 06:00 11,4 C 11,4 C 87 % 0 lf 1020,9 hPa 0,0 l/m 0,00 h 0,00 h 24 W/m 4,3 km/h (1 Bft)
23.05.2015 07:00 12,2 C 12,2 C 85 % 0 lf 1021,1 hPa 0,0 l/m 0,00 h 0,00 h 70 W/m 5,2 km/h (1 Bft)
23.05.2015 08:00 13,4 C 13,1 C 82 % 0 lf 1021,3 hPa 0,0 l/m 0,00 h 0,00 h 123 W/m 7,1 km/h (2 Bft)
23.05.2015 09:00 14,7 C 14,4 C 78 % 0 lf 1021,4 hPa 0,0 l/m 0,23 h 0,00 h 236 W/m 9,9 km/h (2 Bft)
23.05.2015 10:00 17,1 C 16,8 C 68 % 0 lf 1021,2 hPa 0,0 l/m 0,97 h 0,00 h 524 W/m 9,9 km/h (2 Bft)
23.05.2015 11:00 19,5 C 18,7 C 55 % 0 lf 1021,0 hPa 0,0 l/m 1,00 h 0,00 h 573 W/m 12,4 km/h (3 Bft)
23.05.2015 12:00 21,0 C 20,8 C 52 % 0 lf 1020,6 hPa 0,0 l/m 0,97 h 0,00 h 639 W/m 14,9 km/h (3 Bft)
23.05.2015 13:00 20,8 C 21,0 C 58 % 0 lf 1020,2 hPa 0,0 l/m 0,80 h 0,00 h 533 W/m 17,6 km/h (3 Bft)
23.05.2015 14:00 19,9 C 19,4 C 62 % 0 lf 1019,9 hPa 0,0 l/m 0,00 h 0,00 h 305 W/m 18,5 km/h (3 Bft)
23.05.2015 15:00 18,8 C 18,6 C 69 % 0 lf 1019,9 hPa 0,0 l/m 0,00 h 0,00 h 287 W/m 21,5 km/h (4 Bft)
23.05.2015 16:00 16,6 C 16,4 C 78 % 0 lf 1020,3 hPa 0,0 l/m 0,00 h 0,00 h 216 W/m 26,9 km/h (4 Bft)
23.05.2015 17:00 15,3 C 15,1 C 81 % 0 lf 1020,4 hPa 0,0 l/m 0,00 h 0,00 h 119 W/m 20,1 km/h (4 Bft)
23.05.2015 18:00 15,2 C 14,7 C 80 % 0 lf 1020,4 hPa 0,0 l/m 0,00 h 0,00 h 99 W/m 22,0 km/h (4 Bft)
23.05.2015 19:00 14,7 C 14,0 C 81 % 0 lf 1020,3 hPa 0,0 l/m 0,00 h 0,00 h 48 W/m 19,7 km/h (3 Bft)
23.05.2015 20:00 14,4 C 13,5 C 80 % 0 lf 1020,5 hPa 0,0 l/m 0,00 h 0,00 h 21 W/m 17,1 km/h (3 Bft)
23.05.2015 21:00 14,1 C 12,9 C 80 % 0 lf 1020,8 hPa 0,0 l/m 0,00 h 0,00 h 6 W/m 14,8 km/h (3 Bft)
23.05.2015 22:00 13,9 C 12,8 C 80 % 0 lf 1021,1 hPa 0,0 l/m 0,00 h 0,00 h 0 W/m 9,9 km/h (2 Bft)
23.05.2015 23:00 13,5 C 12,0 C 80 % 0 lf 1021,1 hPa 0,0 l/m 0,00 h 0,00 h 0 W/m 5,3 km/h (1 Bft)
24.05.2015 00:00 12,6 C 11,4 C 82 % 0 lf 1021,1 hPa 0,0 l/m 0,00 h 0,00 h 0 W/m 9,6 km/h (2 Bft)
24.05.2015 01:00 11,3 C 10,6 C 81 % 0 lf 1021,0 hPa 0,0 l/m 0,00 h 0,00 h 0 W/m 9,9 km/h (2 Bft)
24.05.2015 02:00 10,7 C 10,1 C 81 % 0 lf 1020,7 hPa 0,0 l/m 0,00 h 0,00 h 0 W/m 10,1 km/h (2 Bft)
24.05.2015 03:00 10,4 C 10,0 C 81 % 0 lf 1020,4 hPa 0,0 l/m 0,00 h 0,00 h 0 W/m 9,0 km/h (2 Bft)
24.05.2015 04:00 10,1 C 10,0 C 83 % 0 lf 1020,0 hPa 0,0 l/m 0,00 h 0,00 h 0 W/m 8,6 km/h (2 Bft)
24.05.2015 05:00 9,9 C 9,8 C 84 % 0 lf 1019,9 hPa 0,0 l/m 0,00 h 0,00 h 6 W/m 6,6 km/h (2 Bft)
24.05.2015 06:00 10,1 C 10,0 C 84 % 0 lf 1019,8 hPa 0,0 l/m 0,00 h 0,00 h 35 W/m 6,2 km/h (2 Bft)
24.05.2015 07:00 10,2 C 10,0 C 84 % 0 lf 1019,9 hPa 0,0 l/m 0,00 h 0,00 h 95 W/m 4,5 km/h (1 Bft)
24.05.2015 08:00 10,6 C 10,8 C 84 % 0 lf 1020,0 hPa 0,0 l/m 0,00 h 0,00 h 125 W/m 3,5 km/h (1 Bft)
24.05.2015 09:00 12,2 C 12,9 C 79 % 0 lf 1019,9 hPa 0,0 l/m 0,57 h 0,00 h 286 W/m 5,0 km/h (1 Bft)
24.05.2015 10:00 15,3 C 15,2 C 72 % 0 lf 1019,7 hPa 0,0 l/m 0,90 h 0,00 h 450 W/m 5,9 km/h (2 Bft)
24.05.2015 11:00 17,9 C 17,6 C 63 % 0 lf 1019,4 hPa 0,0 l/m 1,00 h 0,00 h 645 W/m 9,1 km/h (2 Bft)
24.05.2015 12:00 19,1 C 18,7 C 59 % 0 lf 1019,1 hPa 0,0 l/m 0,70 h 0,00 h 529 W/m 9,0 km/h (2 Bft)
24.05.2015 13:00 19,8 C 21,1 C 56 % 0 lf 1018,8 hPa 0,0 l/m 1,00 h 0,00 h 711 W/m 9,3 km/h (2 Bft)
24.05.2015 14:00 21,0 C 20,4 C 52 % 0 lf 1018,5 hPa 0,0 l/m 1,00 h 0,00 h 748 W/m 11,9 km/h (2 Bft)
24.05.2015 15:00 21,8 C 20,0 C 51 % 0 lf 1018,1 hPa 0,0 l/m 1,00 h 0,00 h 686 W/m 12,6 km/h (3 Bft)
24.05.2015 16:00 21,7 C 19,5 C 49 % 0 lf 1017,6 hPa 0,0 l/m 0,97 h 0,00 h 582 W/m 12,0 km/h (2 Bft)
24.05.2015 17:00 21,6 C 18,4 C 48 % 0 lf 1017,0 hPa 0,0 l/m 1,00 h 0,00 h 520 W/m 14,4 km/h (3 Bft)
24.05.2015 18:00 20,4 C 17,3 C 50 % 0 lf 1016,5 hPa 0,0 l/m 0,97 h 0,00 h 367 W/m 12,6 km/h (3 Bft)
24.05.2015 19:00 19,7 C 16,8 C 52 % 0 lf 1016,3 hPa 0,0 l/m 1,00 h 0,00 h 201 W/m 10,8 km/h (2 Bft)
24.05.2015 20:00 19,2 C 15,6 C 54 % 0 lf 1016,2 hPa 0,0 l/m 0,30 h 0,00 h 59 W/m 4,7 km/h (1 Bft)
24.05.2015 21:00 17,5 C 13,5 C 62 % 0 lf 1016,2 hPa 0,0 l/m 0,00 h 0,00 h 8 W/m 1,5 km/h (1 Bft)
24.05.2015 22:00 15,2 C 12,4 C 65 % 0 lf 1016,5 hPa 0,0 l/m 0,00 h 0,00 h 0 W/m 7,6 km/h (2 Bft)
24.05.2015 23:00 13,8 C 11,1 C 63 % 0 lf 1016,6 hPa 0,0 l/m 0,00 h 0,00 h 0 W/m 4,3 km/h (1 Bft)
Min-Datum _ 21.05.15 21.05.15 22.05.15 18.05.15 18.05.15 - - - - 18.05.15
_ Min-Zeit 06:02 05:24 15:46 00:00 19:50 - - - - 00:00
Minimum _ 4,8 C 5,0 C 42 % 0 lf 1003,5 hPa - - - - 0,0 km/h (0 Bft)
Max-Datum _ 22.05.15 22.05.15 21.05.15 18.05.15 21.05.15 19.05.15 18.05.15 18.05.15 19.05.15 19.05.15
_ Max-Zeit 15:40 14:46 07:42 05:40 23:50 01:18 06:30 21:18 13:06 19:26
Maximum _ 23,4 C 25,6 C 95 % 15 lf 1026,8 hPa 0,4 l/m 0,03 h 0,03 h 1129 W/m 54,4 km/h
W-SW (7 Bft)
Durchschnitt _ 13,8 C 12,7 C 71 % 1 lf 1016,9 hPa #1,0 l/m #56:40 h #4:16 h 313 W/m 13,4 km/h (3 Bft)
© 2015 W. Hausmann